Terminal Aerodrome Forecast
Issued by NWS

Home | Current Version | Previous Version | Text Only | Print | Product List | Glossary On
Versions: 1 2 3 4 5 6 7 8 9 10 11 12
000
FTUS44 KOUN 301729
TAFLAW
TAF
KLAW 301729Z 3018/3118 06006KT P6SM VCTS BKN040CB BKN120
     FM310100 35005KT P6SM SCT030 SCT100
     FM311500 01005KT P6SM OVC050 PROB30 3115/3118 4SM -TSRA
      OVC050CB=

USA.gov is the U.S. government's official web portal to all federal, state and local government web resources and services.